sensor_id;sensor_type;location;lat;lon;timestamp;pressure;altitude;pressure_sealevel;temperature;humidity
49451;BME280;35336;48.400;10.886;2023-07-20T00:00:07;96059.34;;;21.32;49.04
49451;BME280;35336;48.400;10.886;2023-07-20T00:00:23;96062.31;;;21.30;49.15
49451;BME280;35336;48.400;10.886;2023-07-20T00:00:38;96056.91;;;21.30;49.17
49451;BME280;35336;48.400;10.886;2023-07-20T00:00:53;96057.72;;;21.36;48.88
49451;BME280;35336;48.400;10.886;2023-07-20T00:01:09;96058.28;;;21.33;49.02
49451;BME280;35336;48.400;10.886;2023-07-20T00:01:24;96062.59;;;21.34;49.04
49451;BME280;35336;48.400;10.886;2023-07-20T00:01:39;96065.84;;;21.36;48.82
49451;BME280;35336;48.400;10.886;2023-07-20T00:01:55;96066.41;;;21.38;48.91
49451;BME280;35336;48.400;10.886;2023-07-20T00:02:10;96055.00;;;21.36;48.82
49451;BME280;35336;48.400;10.886;2023-07-20T00:02:30;96060.97;;;21.38;48.92
49451;BME280;35336;48.400;10.886;2023-07-20T00:02:45;96061.78;;;21.38;49.05
49451;BME280;35336;48.400;10.886;2023-07-20T00:03:11;96065.84;;;21.36;49.30
49451;BME280;35336;48.400;10.886;2023-07-20T00:03:26;96061.25;;;21.36;49.35
49451;BME280;35336;48.400;10.886;2023-07-20T00:03:42;96053.13;;;21.26;49.68
49451;BME280;35336;48.400;10.886;2023-07-20T00:03:57;96060.44;;;21.31;49.30
49451;BME280;35336;48.400;10.886;2023-07-20T00:04:13;96056.06;;;21.35;49.30
49451;BME280;35336;48.400;10.886;2023-07-20T00:04:31;96064.50;;;21.33;49.20
49451;BME280;35336;48.400;10.886;2023-07-20T00:04:46;96050.13;;;21.33;49.05
49451;BME280;35336;48.400;10.886;2023-07-20T00:05:04;96061.50;;;21.35;49.15
49451;BME280;35336;48.400;10.886;2023-07-20T00:05:19;96067.47;;;21.37;49.23
49451;BME280;35336;48.400;10.886;2023-07-20T00:05:37;96059.34;;;21.32;49.08
49451;BME280;35336;48.400;10.886;2023-07-20T00:05:52;96058.28;;;21.33;49.08
49451;BME280;35336;48.400;10.886;2023-07-20T00:06:10;96060.13;;;21.37;48.86
49451;BME280;35336;48.400;10.886;2023-07-20T00:06:25;96055.53;;;21.38;48.62
49451;BME280;35336;48.400;10.886;2023-07-20T00:06:43;96053.91;;;21.37;48.92
49451;BME280;35336;48.400;10.886;2023-07-20T00:07:03;96043.06;;;21.26;49.14
49451;BME280;35336;48.400;10.886;2023-07-20T00:07:18;96059.06;;;21.33;49.08
49451;BME280;35336;48.400;10.886;2023-07-20T00:07:33;96042.56;;;21.24;49.23
49451;BME280;35336;48.400;10.886;2023-07-20T00:07:51;96055.28;;;21.29;49.30
49451;BME280;35336;48.400;10.886;2023-07-20T00:08:06;96035.75;;;21.17;49.37
49451;BME280;35336;48.400;10.886;2023-07-20T00:08:22;96058.81;;;21.30;49.20
49451;BME280;35336;48.400;10.886;2023-07-20T00:08:37;96057.16;;;21.29;49.22
49451;BME280;35336;48.400;10.886;2023-07-20T00:08:53;96062.59;;;21.29;49.24
49451;BME280;35336;48.400;10.886;2023-07-20T00:09:09;96055.53;;;21.27;49.26
49451;BME280;35336;48.400;10.886;2023-07-20T00:09:24;96052.84;;;21.27;49.59
49451;BME280;35336;48.400;10.886;2023-07-20T00:09:39;96057.44;;;21.27;49.23
49451;BME280;35336;48.400;10.886;2023-07-20T00:09:57;96050.69;;;21.24;49.28
49451;BME280;35336;48.400;10.886;2023-07-20T00:10:12;96053.66;;;21.23;49.11
49451;BME280;35336;48.400;10.886;2023-07-20T00:10:27;96050.13;;;21.22;49.11
49451;BME280;35336;48.400;10.886;2023-07-20T00:10:43;96034.41;;;21.14;49.36
49451;BME280;35336;48.400;10.886;2023-07-20T00:10:58;96044.44;;;21.14;49.16
49451;BME280;35336;48.400;10.886;2023-07-20T00:11:13;96049.34;;;21.22;49.13
49451;BME280;35336;48.400;10.886;2023-07-20T00:11:31;96055.00;;;21.20;49.14
49451;BME280;35336;48.400;10.886;2023-07-20T00:11:53;96052.03;;;21.22;49.29
49451;BME280;35336;48.400;10.886;2023-07-20T00:12:10;96055.28;;;21.24;49.54
49451;BME280;35336;48.400;10.886;2023-07-20T00:12:26;96056.09;;;21.24;49.22
49451;BME280;35336;48.400;10.886;2023-07-20T00:12:43;96054.47;;;21.23;49.46
49451;BME280;35336;48.400;10.886;2023-07-20T00:12:58;96050.66;;;21.19;49.34
49451;BME280;35336;48.400;10.886;2023-07-20T00:13:18;96056.63;;;21.21;49.20
49451;BME280;35336;48.400;10.886;2023-07-20T00:13:36;96057.72;;;21.25;49.28
49451;BME280;35336;48.400;10.886;2023-07-20T00:13:51;96048.50;;;21.21;49.54
49451;BME280;35336;48.400;10.886;2023-07-20T00:14:07;96060.72;;;21.29;49.40
49451;BME280;35336;48.400;10.886;2023-07-20T00:14:22;96045.53;;;21.18;48.96
49451;BME280;35336;48.400;10.886;2023-07-20T00:14:39;96055.53;;;21.27;48.92
49451;BME280;35336;48.400;10.886;2023-07-20T00:14:55;96049.06;;;21.23;48.99
49451;BME280;35336;48.400;10.886;2023-07-20T00:15:10;96057.47;;;21.22;48.78
49451;BME280;35336;48.400;10.886;2023-07-20T00:15:25;96054.47;;;21.18;49.07
49451;BME280;35336;48.400;10.886;2023-07-20T00:15:41;96060.44;;;21.20;48.97
49451;BME280;35336;48.400;10.886;2023-07-20T00:15:59;96056.09;;;21.19;49.30
49451;BME280;35336;48.400;10.886;2023-07-20T00:16:14;96053.09;;;21.16;48.93
49451;BME280;35336;48.400;10.886;2023-07-20T00:16:30;96058.00;;;21.19;49.06
49451;BME280;35336;48.400;10.886;2023-07-20T00:16:46;96058.00;;;21.19;49.13
49451;BME280;35336;48.400;10.886;2023-07-20T00:17:02;96047.16;;;21.14;49.08
49451;BME280;35336;48.400;10.886;2023-07-20T00:17:17;96062.63;;;21.18;49.04
49451;BME280;35336;48.400;10.886;2023-07-20T00:17:32;96059.34;;;21.21;49.32
49451;BME280;35336;48.400;10.886;2023-07-20T00:17:48;96050.41;;;21.21;49.28
49451;BME280;35336;48.400;10.886;2023-07-20T00:18:06;96049.59;;;21.15;49.23
49451;BME280;35336;48.400;10.886;2023-07-20T00:18:21;96053.91;;;21.21;49.24
49451;BME280;35336;48.400;10.886;2023-07-20T00:18:36;96048.50;;;21.16;49.43
49451;BME280;35336;48.400;10.886;2023-07-20T00:18:52;96036.56;;;21.12;49.31
49451;BME280;35336;48.400;10.886;2023-07-20T00:19:07;96054.19;;;21.20;49.50
49451;BME280;35336;48.400;10.886;2023-07-20T00:19:24;96057.19;;;21.18;49.39
49451;BME280;35336;48.400;10.886;2023-07-20T00:19:42;96055.00;;;21.15;49.28
49451;BME280;35336;48.400;10.886;2023-07-20T00:19:59;96057.72;;;21.15;49.23
49451;BME280;35336;48.400;10.886;2023-07-20T00:20:15;96054.47;;;21.13;49.18
49451;BME280;35336;48.400;10.886;2023-07-20T00:20:30;96049.06;;;21.08;49.01
49451;BME280;35336;48.400;10.886;2023-07-20T00:20:45;96043.06;;;21.06;49.23
49451;BME280;35336;48.400;10.886;2023-07-20T00:21:01;96053.38;;;21.09;49.45
49451;BME280;35336;48.400;10.886;2023-07-20T00:21:16;96052.56;;;21.08;49.66
49451;BME280;35336;48.400;10.886;2023-07-20T00:21:31;96047.97;;;21.14;49.71
49451;BME280;35336;48.400;10.886;2023-07-20T00:21:46;96053.09;;;21.16;49.54
49451;BME280;35336;48.400;10.886;2023-07-20T00:22:04;96057.16;;;21.13;49.28
49451;BME280;35336;48.400;10.886;2023-07-20T00:22:19;96056.38;;;21.13;49.17
49451;BME280;35336;48.400;10.886;2023-07-20T00:22:37;96050.66;;;21.14;49.39
49451;BME280;35336;48.400;10.886;2023-07-20T00:22:52;96046.88;;;21.15;49.26
49451;BME280;35336;48.400;10.886;2023-07-20T00:23:07;96051.50;;;21.15;49.27
49451;BME280;35336;48.400;10.886;2023-07-20T00:23:23;96042.28;;;21.10;49.40
49451;BME280;35336;48.400;10.886;2023-07-20T00:23:38;96053.66;;;21.18;49.55
49451;BME280;35336;48.400;10.886;2023-07-20T00:23:53;96049.31;;;21.17;49.44
49451;BME280;35336;48.400;10.886;2023-07-20T00:24:09;96053.94;;;21.16;49.39
49451;BME280;35336;48.400;10.886;2023-07-20T00:24:24;96047.41;;;21.12;49.52
49451;BME280;35336;48.400;10.886;2023-07-20T00:24:41;96050.13;;;21.12;49.30
49451;BME280;35336;48.400;10.886;2023-07-20T00:24:59;96055.00;;;21.20;49.23
49451;BME280;35336;48.400;10.886;2023-07-20T00:25:14;96057.72;;;21.20;49.05
49451;BME280;35336;48.400;10.886;2023-07-20T00:25:32;96036.31;;;21.14;49.16
49451;BME280;35336;48.400;10.886;2023-07-20T00:25:50;96053.66;;;21.23;49.09
49451;BME280;35336;48.400;10.886;2023-07-20T00:26:06;96053.66;;;21.23;49.12
49451;BME280;35336;48.400;10.886;2023-07-20T00:26:23;96054.19;;;21.25;49.24
49451;BME280;35336;48.400;10.886;2023-07-20T00:26:38;96049.06;;;21.23;49.45
49451;BME280;35336;48.400;10.886;2023-07-20T00:26:54;96039.81;;;21.14;49.35
49451;BME280;35336;48.400;10.886;2023-07-20T00:27:09;96057.47;;;21.22;49.26
49451;BME280;35336;48.400;10.886;2023-07-20T00:27:24;96060.44;;;21.20;49.43
49451;BME280;35336;48.400;10.886;2023-07-20T00:27:40;96060.44;;;21.20;49.25
49451;BME280;35336;48.400;10.886;2023-07-20T00:27:55;96057.72;;;21.20;49.24
49451;BME280;35336;48.400;10.886;2023-07-20T00:28:13;96058.25;;;21.22;49.25
49451;BME280;35336;48.400;10.886;2023-07-20T00:28:28;96057.19;;;21.18;49.15
49451;BME280;35336;48.400;10.886;2023-07-20T00:28:46;96052.84;;;21.22;49.23
49451;BME280;35336;48.400;10.886;2023-07-20T00:29:01;96061.53;;;21.24;49.21
49451;BME280;35336;48.400;10.886;2023-07-20T00:29:17;96053.91;;;21.21;49.08
49451;BME280;35336;48.400;10.886;2023-07-20T00:29:35;96056.34;;;21.23;49.25
49451;BME280;35336;48.400;10.886;2023-07-20T00:29:50;96059.06;;;21.23;49.22
49451;BME280;35336;48.400;10.886;2023-07-20T00:30:08;96056.63;;;21.21;49.07
49451;BME280;35336;48.400;10.886;2023-07-20T00:30:26;96031.69;;;21.04;48.99
49451;BME280;35336;48.400;10.886;2023-07-20T00:30:41;96043.91;;;21.06;49.26
49451;BME280;35336;48.400;10.886;2023-07-20T00:30:59;96040.91;;;21.08;49.07
49451;BME280;35336;48.400;10.886;2023-07-20T00:31:17;96044.72;;;21.07;49.21
49451;BME280;35336;48.400;10.886;2023-07-20T00:31:35;96056.38;;;21.18;49.46
49451;BME280;35336;48.400;10.886;2023-07-20T00:31:53;96059.91;;;21.18;49.43
49451;BME280;35336;48.400;10.886;2023-07-20T00:32:08;96064.22;;;21.19;49.51
49451;BME280;35336;48.400;10.886;2023-07-20T00:32:25;96061.78;;;21.18;49.31
49451;BME280;35336;48.400;10.886;2023-07-20T00:32:45;96053.38;;;21.09;49.60
49451;BME280;35336;48.400;10.886;2023-07-20T00:33:01;96061.50;;;21.19;49.34
49451;BME280;35336;48.400;10.886;2023-07-20T00:33:17;96050.13;;;21.12;49.36
49451;BME280;35336;48.400;10.886;2023-07-20T00:33:35;96062.34;;;21.20;49.37
49451;BME280;35336;48.400;10.886;2023-07-20T00:33:50;96058.78;;;21.19;49.02
49451;BME280;35336;48.400;10.886;2023-07-20T00:34:05;96065.84;;;21.20;49.11
49451;BME280;35336;48.400;10.886;2023-07-20T00:34:21;96064.22;;;21.19;49.19
49451;BME280;35336;48.400;10.886;2023-07-20T00:34:36;96049.03;;;21.13;49.31
49451;BME280;35336;48.400;10.886;2023-07-20T00:34:52;96058.28;;;21.17;49.15
49451;BME280;35336;48.400;10.886;2023-07-20T00:35:07;96063.16;;;21.15;48.98
49451;BME280;35336;48.400;10.886;2023-07-20T00:35:25;96056.66;;;21.16;48.83
49451;BME280;35336;48.400;10.886;2023-07-20T00:35:43;96066.94;;;21.19;48.96
49451;BME280;35336;48.400;10.886;2023-07-20T00:36:00;96056.66;;;21.16;48.96
49451;BME280;35336;48.400;10.886;2023-07-20T00:36:21;96058.81;;;21.14;49.09
49451;BME280;35336;48.400;10.886;2023-07-20T00:36:39;96047.41;;;21.07;48.78
49451;BME280;35336;48.400;10.886;2023-07-20T00:36:54;96056.63;;;21.11;48.59
49451;BME280;35336;48.400;10.886;2023-07-20T00:37:11;96059.88;;;21.13;48.91
49451;BME280;35336;48.400;10.886;2023-07-20T00:37:26;96059.59;;;21.09;48.95
49451;BME280;35336;48.400;10.886;2023-07-20T00:37:42;96058.81;;;21.09;49.12
49451;BME280;35336;48.400;10.886;2023-07-20T00:37:57;96063.13;;;21.05;49.09
49451;BME280;35336;48.400;10.886;2023-07-20T00:38:17;96038.72;;;20.89;49.01
49451;BME280;35336;48.400;10.886;2023-07-20T00:38:32;96046.31;;;20.98;48.89
49451;BME280;35336;48.400;10.886;2023-07-20T00:38:50;96063.69;;;21.07;48.71
49451;BME280;35336;48.400;10.886;2023-07-20T00:39:05;96056.34;;;21.07;49.10
49451;BME280;35336;48.400;10.886;2023-07-20T00:39:20;96068.03;;;21.08;49.01
49451;BME280;35336;48.400;10.886;2023-07-20T00:39:38;96066.91;;;21.04;48.79
49451;BME280;35336;48.400;10.886;2023-07-20T00:39:54;96068.56;;;21.00;48.83
49451;BME280;35336;48.400;10.886;2023-07-20T00:40:09;96064.22;;;20.99;48.94
49451;BME280;35336;48.400;10.886;2023-07-20T00:40:24;96057.72;;;20.94;49.04
49451;BME280;35336;48.400;10.886;2023-07-20T00:40:41;96055.00;;;20.94;49.11
49451;BME280;35336;48.400;10.886;2023-07-20T00:40:56;96052.53;;;20.93;49.39
49451;BME280;35336;48.400;10.886;2023-07-20T00:41:11;96067.19;;;20.97;49.08
49451;BME280;35336;48.400;10.886;2023-07-20T00:41:27;96062.59;;;20.98;49.68
49451;BME280;35336;48.400;10.886;2023-07-20T00:41:45;96049.03;;;20.87;49.62
49451;BME280;35336;48.400;10.886;2023-07-20T00:42:00;96059.88;;;20.92;49.50
49451;BME280;35336;48.400;10.886;2023-07-20T00:42:16;96059.34;;;20.96;49.81
49451;BME280;35336;48.400;10.886;2023-07-20T00:42:31;96059.31;;;20.90;49.46
49451;BME280;35336;48.400;10.886;2023-07-20T00:42:49;96061.50;;;20.93;49.39
49451;BME280;35336;48.400;10.886;2023-07-20T00:43:04;96066.94;;;20.93;49.48
49451;BME280;35336;48.400;10.886;2023-07-20T00:43:22;96046.31;;;20.77;49.31
49451;BME280;35336;48.400;10.886;2023-07-20T00:43:37;96069.63;;;20.93;49.29
49451;BME280;35336;48.400;10.886;2023-07-20T00:43:55;96066.94;;;20.93;49.44
49451;BME280;35336;48.400;10.886;2023-07-20T00:44:11;96066.94;;;20.93;49.52
49451;BME280;35336;48.400;10.886;2023-07-20T00:44:26;96054.72;;;20.86;49.30
49451;BME280;35336;48.400;10.886;2023-07-20T00:44:41;96055.81;;;20.90;49.10
49451;BME280;35336;48.400;10.886;2023-07-20T00:44:57;96072.34;;;20.93;49.26
49451;BME280;35336;48.400;10.886;2023-07-20T00:45:12;96072.63;;;20.92;49.22
49451;BME280;35336;48.400;10.886;2023-07-20T00:45:30;96062.31;;;20.89;49.22
49451;BME280;35336;48.400;10.886;2023-07-20T00:45:46;96066.94;;;20.88;49.20
49451;BME280;35336;48.400;10.886;2023-07-20T00:46:01;96054.72;;;20.86;48.83
49451;BME280;35336;48.400;10.886;2023-07-20T00:46:17;96057.97;;;20.88;48.99
49451;BME280;35336;48.400;10.886;2023-07-20T00:46:32;96060.16;;;20.91;49.23
49451;BME280;35336;48.400;10.886;2023-07-20T00:46:50;96063.13;;;20.89;49.38
49451;BME280;35336;48.400;10.886;2023-07-20T00:47:08;96062.03;;;20.85;49.32
49451;BME280;35336;48.400;10.886;2023-07-20T00:47:23;96046.03;;;20.73;49.52
49451;BME280;35336;48.400;10.886;2023-07-20T00:47:39;96064.47;;;20.82;49.58
49451;BME280;35336;48.400;10.886;2023-07-20T00:47:54;96054.16;;;20.78;49.26
49451;BME280;35336;48.400;10.886;2023-07-20T00:48:10;96062.31;;;20.84;49.23
49451;BME280;35336;48.400;10.886;2023-07-20T00:48:26;96060.13;;;20.81;49.41
49451;BME280;35336;48.400;10.886;2023-07-20T00:48:43;96051.72;;;20.82;49.42
49451;BME280;35336;48.400;10.886;2023-07-20T00:48:59;96062.84;;;20.81;49.22
49451;BME280;35336;48.400;10.886;2023-07-20T00:49:15;96058.78;;;20.78;49.19
49451;BME280;35336;48.400;10.886;2023-07-20T00:49:31;96061.22;;;20.74;49.30
49451;BME280;35336;48.400;10.886;2023-07-20T00:49:47;96064.72;;;20.75;49.33
49451;BME280;35336;48.400;10.886;2023-07-20T00:50:06;96053.84;;;20.70;49.36
49451;BME280;35336;48.400;10.886;2023-07-20T00:50:24;96066.63;;;20.74;49.31
49451;BME280;35336;48.400;10.886;2023-07-20T00:50:41;96059.84;;;20.77;49.66
49451;BME280;35336;48.400;10.886;2023-07-20T00:50:58;96052.78;;;20.71;49.20
49451;BME280;35336;48.400;10.886;2023-07-20T00:51:15;96068.81;;;20.77;49.55
49451;BME280;35336;48.400;10.886;2023-07-20T00:51:33;96066.34;;;20.76;49.74
49451;BME280;35336;48.400;10.886;2023-07-20T00:51:51;96052.22;;;20.69;49.37
49451;BME280;35336;48.400;10.886;2023-07-20T00:52:07;96057.41;;;20.70;48.99
49451;BME280;35336;48.400;10.886;2023-07-20T00:52:23;96056.88;;;20.73;48.70
49451;BME280;35336;48.400;10.886;2023-07-20T00:52:38;96060.41;;;20.74;49.26
49451;BME280;35336;48.400;10.886;2023-07-20T00:52:57;96061.22;;;20.79;49.21
49451;BME280;35336;48.400;10.886;2023-07-20T00:53:16;96049.84;;;20.77;49.16
49451;BME280;35336;48.400;10.886;2023-07-20T00:53:33;96060.97;;;20.86;49.07
49451;BME280;35336;48.400;10.886;2023-07-20T00:53:49;96069.91;;;20.92;48.96
49451;BME280;35336;48.400;10.886;2023-07-20T00:54:07;96063.66;;;20.91;48.81
49451;BME280;35336;48.400;10.886;2023-07-20T00:54:25;96055.53;;;20.97;48.96
49451;BME280;35336;48.400;10.886;2023-07-20T00:54:41;96052.31;;;20.94;48.43
49451;BME280;35336;48.400;10.886;2023-07-20T00:54:59;96064.22;;;21.04;48.30
49451;BME280;35336;48.400;10.886;2023-07-20T00:55:18;96063.69;;;21.02;48.19
49451;BME280;35336;48.400;10.886;2023-07-20T00:55:36;96059.63;;;20.99;48.00
49451;BME280;35336;48.400;10.886;2023-07-20T00:55:51;96060.69;;;20.98;48.21
49451;BME280;35336;48.400;10.886;2023-07-20T00:56:07;96066.38;;;20.97;48.46
49451;BME280;35336;48.400;10.886;2023-07-20T00:56:24;96048.75;;;20.89;48.15
49451;BME280;35336;48.400;10.886;2023-07-20T00:56:40;96040.09;;;20.82;47.85
49451;BME280;35336;48.400;10.886;2023-07-20T00:56:55;96058.25;;;20.91;47.75
49451;BME280;35336;48.400;10.886;2023-07-20T00:57:14;96049.28;;;20.86;48.03
49451;BME280;35336;48.400;10.886;2023-07-20T00:57:32;96063.94;;;20.85;48.13
49451;BME280;35336;48.400;10.886;2023-07-20T00:57:47;96059.59;;;20.89;47.85
49451;BME280;35336;48.400;10.886;2023-07-20T00:58:03;96049.56;;;20.79;47.68
49451;BME280;35336;48.400;10.886;2023-07-20T00:58:19;96060.13;;;20.81;48.07
49451;BME280;35336;48.400;10.886;2023-07-20T00:58:35;96058.78;;;20.78;47.89
49451;BME280;35336;48.400;10.886;2023-07-20T00:58:52;96037.31;;;20.66;48.26
49451;BME280;35336;48.400;10.886;2023-07-20T00:59:07;96066.91;;;20.78;47.98
49451;BME280;35336;48.400;10.886;2023-07-20T00:59:23;96045.16;;;20.68;48.16
49451;BME280;35336;48.400;10.886;2023-07-20T00:59:38;96057.69;;;20.79;47.98
49451;BME280;35336;48.400;10.886;2023-07-20T00:59:56;96061.75;;;20.76;47.90
49451;BME280;35336;48.400;10.886;2023-07-20T01:00:11;96060.94;;;20.76;48.57
49451;BME280;35336;48.400;10.886;2023-07-20T01:00:27;96061.22;;;20.79;48.44
49451;BME280;35336;48.400;10.886;2023-07-20T01:00:45;96047.38;;;20.76;48.43
49451;BME280;35336;48.400;10.886;2023-07-20T01:01:00;96044.97;;;20.74;48.29
49451;BME280;35336;48.400;10.886;2023-07-20T01:01:18;96062.03;;;20.85;48.38
49451;BME280;35336;48.400;10.886;2023-07-20T01:01:33;96053.91;;;20.85;48.53
49451;BME280;35336;48.400;10.886;2023-07-20T01:01:51;96058.25;;;20.86;48.38
49451;BME280;35336;48.400;10.886;2023-07-20T01:02:06;96056.91;;;20.84;48.34
49451;BME280;35336;48.400;10.886;2023-07-20T01:02:22;96058.25;;;20.81;48.36
49451;BME280;35336;48.400;10.886;2023-07-20T01:02:37;96059.34;;;20.80;48.45
49451;BME280;35336;48.400;10.886;2023-07-20T01:02:52;96056.63;;;20.80;48.54
49451;BME280;35336;48.400;10.886;2023-07-20T01:03:07;96057.97;;;20.77;48.63
49451;BME280;35336;48.400;10.886;2023-07-20T01:03:23;96062.03;;;20.80;48.56
49451;BME280;35336;48.400;10.886;2023-07-20T01:03:38;96055.00;;;20.79;47.88
49451;BME280;35336;48.400;10.886;2023-07-20T01:03:56;96055.00;;;20.79;47.82
49451;BME280;35336;48.400;10.886;2023-07-20T01:04:11;96057.97;;;20.77;47.96
49451;BME280;35336;48.400;10.886;2023-07-20T01:04:29;96051.16;;;20.75;47.67
49451;BME280;35336;48.400;10.886;2023-07-20T01:04:45;96058.22;;;20.76;47.83
49451;BME280;35336;48.400;10.886;2023-07-20T01:05:00;96049.81;;;20.72;47.90
49451;BME280;35336;48.400;10.886;2023-07-20T01:05:16;96052.28;;;20.74;48.10
49451;BME280;35336;48.400;10.886;2023-07-20T01:05:40;96061.22;;;20.79;48.24
49451;BME280;35336;48.400;10.886;2023-07-20T01:06:00;96054.19;;;20.84;48.02
49451;BME280;35336;48.400;10.886;2023-07-20T01:06:29;96055.81;;;20.90;47.82
49451;BME280;35336;48.400;10.886;2023-07-20T01:07:23;96056.63;;;20.90;47.41
49451;BME280;35336;48.400;10.886;2023-07-20T01:07:55;96061.50;;;20.88;47.80
49451;BME280;35336;48.400;10.886;2023-07-20T01:08:33;96062.59;;;20.87;47.85
49451;BME280;35336;48.400;10.886;2023-07-20T01:09:00;96060.97;;;20.86;47.79
49451;BME280;35336;48.400;10.886;2023-07-20T01:09:28;96069.34;;;20.79;47.56
49451;BME280;35336;48.400;10.886;2023-07-20T01:10:59;96059.06;;;20.76;47.38
49451;BME280;35336;48.400;10.886;2023-07-20T01:11:23;96066.91;;;20.73;47.62
49451;BME280;35336;48.400;10.886;2023-07-20T01:12:27;96063.06;;;20.63;47.99
49451;BME280;35336;48.400;10.886;2023-07-20T01:12:46;96063.34;;;20.62;48.08
49451;BME280;35336;48.400;10.886;2023-07-20T01:13:05;96060.88;;;20.60;48.01
49451;BME280;35336;48.400;10.886;2023-07-20T01:13:21;96054.94;;;20.58;48.30
49451;BME280;35336;48.400;10.886;2023-07-20T01:13:37;96060.88;;;20.60;47.99
49451;BME280;35336;48.400;10.886;2023-07-20T01:13:56;96055.19;;;20.62;47.63
49451;BME280;35336;48.400;10.886;2023-07-20T01:14:15;96067.69;;;20.68;47.86
49451;BME280;35336;48.400;10.886;2023-07-20T01:14:32;96062.25;;;20.68;47.88
49451;BME280;35336;48.400;10.886;2023-07-20T01:14:48;96064.13;;;20.68;47.85
49451;BME280;35336;48.400;10.886;2023-07-20T01:15:06;96065.25;;;20.67;47.92
49451;BME280;35336;48.400;10.886;2023-07-20T01:15:24;96065.50;;;20.65;47.90
49451;BME280;35336;48.400;10.886;2023-07-20T01:15:39;96066.31;;;20.66;48.00
49451;BME280;35336;48.400;10.886;2023-07-20T01:16:02;96067.41;;;20.65;48.06
49451;BME280;35336;48.400;10.886;2023-07-20T01:16:18;96066.03;;;20.62;47.87
49451;BME280;35336;48.400;10.886;2023-07-20T01:16:33;96066.03;;;20.62;47.80
49451;BME280;35336;48.400;10.886;2023-07-20T01:16:48;96069.56;;;20.62;47.81
49451;BME280;35336;48.400;10.886;2023-07-20T01:17:04;96063.34;;;20.62;47.89
49451;BME280;35336;48.400;10.886;2023-07-20T01:17:19;96048.94;;;20.51;48.12
49451;BME280;35336;48.400;10.886;2023-07-20T01:17:35;96066.56;;;20.59;48.24
49451;BME280;35336;48.400;10.886;2023-07-20T01:17:51;96064.13;;;20.57;48.06
49451;BME280;35336;48.400;10.886;2023-07-20T01:18:08;96061.41;;;20.57;47.94
49451;BME280;35336;48.400;10.886;2023-07-20T01:18:24;96064.69;;;20.59;48.21
49451;BME280;35336;48.400;10.886;2023-07-20T01:18:39;96063.06;;;20.58;48.09
49451;BME280;35336;48.400;10.886;2023-07-20T01:18:54;96073.88;;;20.63;48.29
49451;BME280;35336;48.400;10.886;2023-07-20T01:19:13;96063.84;;;20.64;48.22
49451;BME280;35336;48.400;10.886;2023-07-20T01:19:31;96067.66;;;20.63;48.46
49451;BME280;35336;48.400;10.886;2023-07-20T01:19:46;96067.13;;;20.66;48.35
49451;BME280;35336;48.400;10.886;2023-07-20T01:20:01;96060.88;;;20.60;48.53
49451;BME280;35336;48.400;10.886;2023-07-20T01:20:19;96058.16;;;20.60;48.38
49451;BME280;35336;48.400;10.886;2023-07-20T01:20:36;96064.69;;;20.65;48.31
49451;BME280;35336;48.400;10.886;2023-07-20T01:20:57;96063.06;;;20.63;48.28
49451;BME280;35336;48.400;10.886;2023-07-20T01:21:27;96053.28;;;20.57;47.94
49451;BME280;35336;48.400;10.886;2023-07-20T01:29:43;96062.78;;;20.65;47.97
49451;BME280;35336;48.400;10.886;2023-07-20T01:30:13;96063.84;;;20.64;47.99
49451;BME280;35336;48.400;10.886;2023-07-20T01:31:42;96067.13;;;20.66;48.37
49451;BME280;35336;48.400;10.886;2023-07-20T01:32:02;96054.38;;;20.61;48.06
49451;BME280;35336;48.400;10.886;2023-07-20T01:32:21;96069.31;;;20.69;48.14
49451;BME280;35336;48.400;10.886;2023-07-20T01:32:40;96048.97;;;20.61;48.06
49451;BME280;35336;48.400;10.886;2023-07-20T01:32:58;96068.75;;;20.67;48.10
49451;BME280;35336;48.400;10.886;2023-07-20T01:33:15;96065.75;;;20.69;48.14
49451;BME280;35336;48.400;10.886;2023-07-20T01:33:32;96043.25;;;20.58;48.26
49451;BME280;35336;48.400;10.886;2023-07-20T01:33:54;96058.72;;;20.62;48.11
49451;BME280;35336;48.400;10.886;2023-07-20T01:34:12;96068.47;;;20.69;47.83
49451;BME280;35336;48.400;10.886;2023-07-20T01:34:31;96065.75;;;20.69;47.90
49451;BME280;35336;48.400;10.886;2023-07-20T01:34:48;96067.44;;;20.75;47.61
49451;BME280;35336;48.400;10.886;2023-07-20T01:35:10;96055.47;;;20.66;47.86
49451;BME280;35336;48.400;10.886;2023-07-20T01:35:29;96072.00;;;20.69;47.90
49451;BME280;35336;48.400;10.886;2023-07-20T01:35:52;96068.47;;;20.69;47.92
49451;BME280;35336;48.400;10.886;2023-07-20T01:36:09;96070.66;;;20.67;48.15
49451;BME280;35336;48.400;10.886;2023-07-20T01:36:28;96066.31;;;20.66;47.98
49451;BME280;35336;48.400;10.886;2023-07-20T01:36:45;96065.75;;;20.63;48.10
49451;BME280;35336;48.400;10.886;2023-07-20T01:37:01;96068.47;;;20.63;48.09
49451;BME280;35336;48.400;10.886;2023-07-20T01:37:20;96066.84;;;20.62;48.34
49451;BME280;35336;48.400;10.886;2023-07-20T01:37:37;96048.94;;;20.51;48.28
49451;BME280;35336;48.400;10.886;2023-07-20T01:37:53;96067.91;;;20.61;48.16
49451;BME280;35336;48.400;10.886;2023-07-20T01:38:11;96060.59;;;20.57;48.32
49451;BME280;35336;48.400;10.886;2023-07-20T01:38:27;96066.03;;;20.67;48.15
49451;BME280;35336;48.400;10.886;2023-07-20T01:38:43;96060.06;;;20.55;48.35
49451;BME280;35336;48.400;10.886;2023-07-20T01:39:01;96071.69;;;20.60;48.25
49451;BME280;35336;48.400;10.886;2023-07-20T01:39:17;96058.72;;;20.52;48.46
49451;BME280;35336;48.400;10.886;2023-07-20T01:39:36;96074.97;;;20.57;48.41
49451;BME280;35336;48.400;10.886;2023-07-20T01:39:53;96070.63;;;20.61;48.35
49451;BME280;35336;48.400;10.886;2023-07-20T01:40:10;96073.59;;;20.60;48.32
49451;BME280;35336;48.400;10.886;2023-07-20T01:40:26;96071.97;;;20.59;48.32